createdAt,value
2018-09-01T00:02:25.016Z,77.43
2018-09-01T00:04:54.756Z,77.68
2018-09-01T00:07:24.910Z,79.11
2018-09-01T00:09:54.501Z,78.79
2018-09-01T00:12:24.122Z,79.30
2018-09-01T00:14:53.921Z,79.27
2018-09-01T00:17:28.563Z,79.93
2018-09-01T00:20:00.759Z,79.03
2018-09-01T00:22:30.800Z,79.57
2018-09-01T00:25:00.423Z,80.07
2018-09-01T00:27:30.199Z,80.33
2018-09-01T00:29:59.851Z,79.31
2018-09-01T00:32:29.923Z,80.02
2018-09-01T00:34:59.480Z,79.74
2018-09-01T00:37:34.681Z,80.90
2018-09-01T00:40:04.328Z,80.63
2018-09-01T00:42:33.862Z,80.86
2018-09-01T00:45:03.530Z,81.23
2018-09-01T00:47:33.142Z,81.51
2018-09-01T00:50:02.798Z,82.20
2018-09-01T00:52:32.425Z,82.22
2018-09-01T00:55:02.125Z,82.20
2018-09-01T00:57:31.966Z,82.42
2018-09-01T01:00:01.603Z,83.12
2018-09-01T01:02:31.614Z,83.25
2018-09-01T01:05:01.267Z,83.64
2018-09-01T01:07:31.233Z,83.82
2018-09-01T01:10:00.796Z,84.09
2018-09-01T01:12:30.717Z,84.27
2018-09-01T01:15:00.256Z,84.55
2018-09-01T01:17:30.124Z,84.82
2018-09-01T01:19:59.693Z,84.82
2018-09-01T01:22:29.376Z,84.41
2018-09-01T01:24:59.072Z,84.99
2018-09-01T01:27:28.717Z,85.41
2018-09-01T01:29:58.222Z,86.64
2018-09-01T01:32:27.861Z,86.82
2018-09-01T01:34:57.971Z,87.15
2018-09-01T01:37:27.557Z,87.83
2018-09-01T01:39:57.101Z,86.26
2018-09-01T01:42:26.738Z,86.88
2018-09-01T01:44:56.313Z,86.91
2018-09-01T01:47:25.867Z,86.80
2018-09-01T01:49:55.589Z,87.04
2018-09-01T01:52:25.155Z,87.50
2018-09-01T01:54:54.712Z,86.95
2018-09-01T01:57:30.589Z,88.01
2018-09-01T02:00:00.199Z,88.86
2018-09-01T02:02:37.123Z,88.40
2018-09-01T02:05:08.948Z,88.07
2018-09-01T02:07:39.479Z,90.03
2018-09-01T02:10:09.073Z,88.91
2018-09-01T02:12:38.864Z,88.51
2018-09-01T02:15:08.415Z,89.41
2018-09-01T02:17:38.209Z,89.11
2018-09-01T02:20:07.841Z,89.20
2018-09-01T02:22:37.950Z,89.44
2018-09-01T02:25:07.773Z,89.45
2018-09-01T02:27:37.669Z,90.31
2018-09-01T02:30:07.391Z,90.16
2018-09-01T02:32:37.236Z,91.20
2018-09-01T02:35:06.962Z,92.71
2018-09-01T02:37:36.951Z,92.70
2018-09-01T02:40:06.599Z,93.73
2018-09-01T02:42:36.212Z,94.72
2018-09-01T02:45:06.693Z,94.89
2018-09-01T02:47:36.316Z,94.69
2018-09-01T02:50:06.019Z,95.12
2018-09-01T02:52:35.630Z,95.11
2018-09-01T02:55:05.458Z,94.64
2018-09-01T02:57:35.097Z,94.44
2018-09-01T03:00:09.020Z,94.48
2018-09-01T03:02:43.804Z,95.78
2018-09-01T03:05:15.331Z,95.30
2018-09-01T03:07:45.111Z,95.92
2018-09-01T03:10:14.628Z,97.79
2018-09-01T03:12:44.264Z,98.71
2018-09-01T03:15:13.914Z,97.79
2018-09-01T03:17:44.008Z,98.29
2018-09-01T03:20:13.565Z,98.55
2018-09-01T03:22:43.553Z,100.00
2018-09-01T03:25:13.097Z,100.00
2018-09-01T03:27:43.791Z,100.00
2018-09-01T03:30:13.355Z,100.00
2018-09-01T03:32:43.332Z,100.00
2018-09-01T03:35:12.907Z,100.00
2018-09-01T03:37:42.765Z,100.00
2018-09-01T03:40:12.303Z,100.00
2018-09-01T03:42:42.246Z,100.00
2018-09-01T03:45:11.828Z,100.00
2018-09-01T03:47:41.505Z,100.00
2018-09-01T03:50:11.260Z,100.00
2018-09-01T03:52:40.911Z,100.00
2018-09-01T03:55:11.414Z,100.00
2018-09-01T03:57:40.967Z,100.00
2018-09-01T04:00:10.757Z,100.00
2018-09-01T04:02:40.331Z,100.00
2018-09-01T04:05:09.992Z,100.00
2018-09-01T04:07:39.708Z,100.00
2018-09-01T04:10:09.325Z,100.00
2018-09-01T04:12:39.715Z,100.00
2018-09-01T04:15:09.655Z,100.00
2018-09-01T04:17:39.221Z,100.00
2018-09-01T04:20:08.811Z,99.78
2018-09-01T04:22:38.496Z,100.00
2018-09-01T04:25:08.149Z,100.00
2018-09-01T04:27:37.862Z,100.00
2018-09-01T04:30:07.934Z,100.00
2018-09-01T04:32:37.485Z,100.00
2018-09-01T04:35:07.234Z,100.00
2018-09-01T04:37:36.757Z,100.00
2018-09-01T04:40:06.773Z,100.00
2018-09-01T04:42:36.426Z,100.00
2018-09-01T04:45:06.357Z,97.71
2018-09-01T04:47:35.962Z,96.56
2018-09-01T04:50:05.599Z,97.46
2018-09-01T04:52:35.176Z,97.66
2018-09-01T04:55:04.733Z,96.95
2018-09-01T04:57:34.388Z,96.45
2018-09-01T05:00:04.032Z,96.08
2018-09-01T05:02:33.637Z,95.34
2018-09-01T05:05:03.928Z,95.90
2018-09-01T05:07:33.562Z,95.81
2018-09-01T05:10:03.122Z,94.64
2018-09-01T05:12:32.684Z,93.16
2018-09-01T05:15:02.982Z,92.85
2018-09-01T05:17:36.076Z,92.48
2018-09-01T05:20:06.078Z,90.97
2018-09-01T05:22:35.913Z,90.35
2018-09-01T05:25:05.923Z,91.03
2018-09-01T05:27:35.511Z,89.90
2018-09-01T05:30:06.359Z,88.41
2018-09-01T05:32:35.924Z,88.36
2018-09-01T05:35:05.817Z,87.38
2018-09-01T05:37:36.160Z,85.43
2018-09-01T05:40:06.841Z,84.79
2018-09-01T05:42:37.011Z,83.67
2018-09-01T05:45:06.869Z,76.97
2018-09-01T05:47:36.492Z,68.86
2018-09-01T05:50:06.211Z,64.05
2018-09-01T05:52:35.761Z,53.17
2018-09-01T05:55:05.501Z,56.63
2018-09-01T05:57:35.084Z,54.34
2018-09-01T06:00:04.953Z,54.92
2018-09-01T06:02:34.593Z,52.34
2018-09-01T06:05:04.713Z,49.42
2018-09-01T06:10:03.032Z,51.75
2018-09-01T06:12:32.734Z,51.29
2018-09-01T06:15:05.332Z,51.00
2018-09-01T06:17:34.914Z,46.97
2018-09-01T06:20:04.596Z,49.80
2018-09-01T06:22:34.246Z,45.25
2018-09-01T06:25:04.121Z,49.00
2018-09-01T06:27:37.377Z,46.88
2018-09-01T06:30:09.319Z,47.58
2018-09-01T06:32:39.015Z,50.20
2018-09-01T06:35:09.897Z,42.25
2018-09-01T06:37:39.510Z,40.84
2018-09-01T06:40:09.063Z,42.61
2018-09-01T06:42:38.753Z,41.82
2018-09-01T06:45:08.897Z,41.24
2018-09-01T06:47:38.573Z,39.75
2018-09-01T06:50:08.190Z,51.76
2018-09-01T06:52:37.801Z,54.52
2018-09-01T06:55:07.529Z,50.56
2018-09-01T06:57:37.176Z,43.12
2018-09-01T07:00:07.141Z,45.05
2018-09-01T07:02:36.695Z,48.71
2018-09-01T07:05:06.609Z,60.50
2018-09-01T07:07:36.244Z,65.36
2018-09-01T07:10:06.597Z,63.88
2018-09-01T07:12:36.242Z,67.00
2018-09-01T07:15:05.880Z,65.86
2018-09-01T07:17:35.420Z,68.59
2018-09-01T07:20:05.074Z,71.03
2018-09-01T07:22:34.666Z,70.41
2018-09-01T07:25:04.506Z,71.14
2018-09-01T07:27:34.103Z,70.33
2018-09-01T07:30:04.368Z,70.59
2018-09-01T07:32:33.875Z,71.55
2018-09-01T07:35:03.996Z,69.85
2018-09-01T07:37:33.632Z,71.57
2018-09-01T07:40:03.679Z,71.05
2018-09-01T07:42:33.231Z,71.12
2018-09-01T07:45:03.172Z,71.23
2018-09-01T07:47:32.813Z,72.96
2018-09-01T07:50:02.903Z,71.69
2018-09-01T07:52:33.230Z,72.03
2018-09-01T07:55:03.589Z,70.86
2018-09-01T07:57:33.372Z,72.30
2018-09-01T08:00:03.466Z,72.23
2018-09-01T08:02:33.143Z,71.09
2018-09-01T08:05:03.216Z,71.66
2018-09-01T08:07:33.052Z,69.31
2018-09-01T08:10:02.642Z,67.46
2018-09-01T08:12:32.286Z,68.56
2018-09-01T08:15:02.178Z,68.28
2018-09-01T08:17:31.866Z,67.18
2018-09-01T08:20:01.590Z,64.87
2018-09-01T08:22:31.187Z,63.98
2018-09-01T08:25:00.861Z,64.39
2018-09-01T08:27:30.466Z,65.62
2018-09-01T08:30:00.052Z,64.22
2018-09-01T08:32:29.621Z,63.86
2018-09-01T08:34:59.273Z,64.13
2018-09-01T08:37:28.905Z,65.41
2018-09-01T08:39:58.636Z,66.14
2018-09-01T08:42:28.245Z,65.71
2018-09-01T08:44:58.043Z,65.51
2018-09-01T08:47:27.620Z,64.74
2018-09-01T08:49:57.419Z,64.29
2018-09-01T08:52:27.056Z,63.13
2018-09-01T08:54:56.712Z,63.78
2018-09-01T08:57:26.418Z,64.08
2018-09-01T08:59:56.024Z,65.47
2018-09-01T09:02:25.645Z,64.20
2018-09-01T09:04:55.252Z,63.66
2018-09-01T09:07:24.930Z,61.65
2018-09-01T09:09:54.717Z,63.86
2018-09-01T09:12:24.585Z,64.70
2018-09-01T09:14:54.826Z,65.18
2018-09-01T09:17:24.676Z,66.02
2018-09-01T09:19:54.370Z,67.07
2018-09-01T09:22:24.183Z,66.21
2018-09-01T09:24:53.995Z,67.19
2018-09-01T09:27:23.654Z,65.55
2018-09-01T09:29:53.396Z,64.13
2018-09-01T09:32:23.360Z,64.97
2018-09-01T09:34:52.978Z,65.21
2018-09-01T09:37:22.653Z,64.65
2018-09-01T09:39:52.389Z,63.58
2018-09-01T09:42:22.010Z,61.08
2018-09-01T09:44:51.789Z,62.71
2018-09-01T09:47:21.502Z,61.27
2018-09-01T09:49:51.542Z,61.14
2018-09-01T09:52:21.445Z,60.02
2018-09-01T09:54:51.125Z,59.28
2018-09-01T09:57:20.853Z,59.34
2018-09-01T09:59:50.456Z,56.86
2018-09-01T10:02:20.090Z,55.96
2018-09-01T10:04:49.711Z,55.75
2018-09-01T10:07:19.540Z,57.38
2018-09-01T10:09:49.208Z,59.81
2018-09-01T10:12:19.032Z,61.15
2018-09-01T10:14:48.749Z,60.29
2018-09-01T10:17:18.544Z,61.54
2018-09-01T10:19:48.880Z,61.45
2018-09-01T10:22:18.556Z,58.00
2018-09-01T10:24:48.244Z,59.31
2018-09-01T10:27:18.366Z,60.21
2018-09-01T10:29:48.338Z,60.32
2018-09-01T10:32:18.438Z,58.26
2018-09-01T10:34:48.128Z,57.81
2018-09-01T10:37:18.421Z,58.28
2018-09-01T10:39:48.265Z,57.06
2018-09-01T10:42:18.300Z,57.53
2018-09-01T10:44:48.362Z,56.88
2018-09-01T10:47:18.665Z,55.32
2018-09-01T10:49:49.464Z,53.98
2018-09-01T10:52:20.442Z,54.74
2018-09-01T10:54:50.125Z,54.91
2018-09-01T10:57:20.248Z,55.43
2018-09-01T10:59:50.172Z,56.69
2018-09-01T11:02:20.490Z,56.72
2018-09-01T11:04:50.234Z,56.83
2018-09-01T11:07:20.284Z,54.73
2018-09-01T11:09:49.973Z,53.85
2018-09-01T11:12:19.983Z,53.69
2018-09-01T11:14:49.883Z,54.37
2018-09-01T11:17:20.232Z,53.04
2018-09-01T11:19:50.097Z,52.76
2018-09-01T11:22:20.284Z,52.02
2018-09-01T11:24:49.922Z,50.57
2018-09-01T11:27:19.690Z,49.49
2018-09-01T11:29:49.454Z,49.28
2018-09-01T11:32:19.364Z,50.59
2018-09-01T11:34:48.978Z,50.83
2018-09-01T11:37:18.617Z,50.37
2018-09-01T11:39:51.129Z,49.99
2018-09-01T11:42:20.984Z,49.70
2018-09-01T11:44:50.571Z,47.82
2018-09-01T11:47:20.484Z,46.82
2018-09-01T11:49:50.161Z,47.32
2018-09-01T11:52:20.271Z,48.22
2018-09-01T11:54:49.844Z,51.01
2018-09-01T11:57:19.485Z,49.90
2018-09-01T11:59:49.071Z,48.69
2018-09-01T12:02:18.811Z,47.17
2018-09-01T12:04:48.647Z,47.51
2018-09-01T12:07:18.360Z,45.84
2018-09-01T12:09:48.259Z,46.08
2018-09-01T12:12:17.882Z,45.59
2018-09-01T12:14:47.658Z,45.54
2018-09-01T12:17:17.318Z,45.74
2018-09-01T12:19:46.932Z,46.60
2018-09-01T12:22:16.583Z,46.56
2018-09-01T12:24:46.251Z,47.75
2018-09-01T12:27:18.796Z,45.98
2018-09-01T12:29:48.415Z,48.22
2018-09-01T12:32:18.120Z,48.66
2018-09-01T12:34:47.761Z,47.68
2018-09-01T12:37:17.613Z,47.18
2018-09-01T12:39:47.263Z,47.58
2018-09-01T12:42:16.860Z,47.77
2018-09-01T12:44:46.609Z,45.84
2018-09-01T12:47:16.206Z,45.30
2018-09-01T12:49:45.817Z,44.72
2018-09-01T12:52:15.402Z,43.80
2018-09-01T12:54:45.741Z,45.68
2018-09-01T12:57:15.313Z,44.18
2018-09-01T12:59:45.064Z,41.69
2018-09-01T13:02:22.363Z,40.34
2018-09-01T13:04:52.052Z,40.87
2018-09-01T13:07:22.114Z,40.55
2018-09-01T13:09:51.745Z,42.61
2018-09-01T13:12:21.493Z,42.22
2018-09-01T13:14:51.127Z,41.29
2018-09-01T13:17:20.713Z,41.67
2018-09-01T13:19:50.312Z,41.23
2018-09-01T13:22:20.197Z,41.37
2018-09-01T13:24:49.860Z,43.97
2018-09-01T13:27:19.733Z,44.64
2018-09-01T13:29:49.327Z,46.21
2018-09-01T13:32:18.956Z,47.16
2018-09-01T13:34:48.575Z,48.13
2018-09-01T13:37:18.228Z,48.54
2018-09-01T13:39:47.825Z,48.66
2018-09-01T13:42:17.501Z,48.66
2018-09-01T13:44:47.271Z,48.44
2018-09-01T13:47:16.962Z,48.01
2018-09-01T13:49:46.667Z,46.61
2018-09-01T13:52:16.526Z,46.00
2018-09-01T13:54:46.184Z,45.13
2018-09-01T13:57:15.952Z,45.88
2018-09-01T13:59:45.680Z,46.79
2018-09-01T14:02:15.392Z,46.49
2018-09-01T14:04:45.543Z,46.87
2018-09-01T14:07:15.167Z,47.00
2018-09-01T14:09:44.808Z,46.45
2018-09-01T14:12:14.439Z,44.99
2018-09-01T14:14:44.258Z,44.31
2018-09-01T14:17:13.782Z,44.09
2018-09-01T14:19:43.428Z,42.74
2018-09-01T14:22:12.977Z,43.55
2018-09-01T14:24:42.777Z,44.48
2018-09-01T14:27:12.352Z,42.79
2018-09-01T14:29:42.048Z,43.78
2018-09-01T14:32:11.998Z,42.50
2018-09-01T14:34:41.672Z,42.73
2018-09-01T14:37:11.421Z,43.15
2018-09-01T14:39:41.204Z,43.13
2018-09-01T14:42:10.834Z,43.72
2018-09-01T14:44:40.547Z,43.12
2018-09-01T14:47:10.254Z,43.81
2018-09-01T14:49:39.932Z,45.03
2018-09-01T14:52:09.504Z,45.34
2018-09-01T14:54:39.515Z,44.37
2018-09-01T14:57:09.250Z,45.70
2018-09-01T14:59:39.743Z,45.05
2018-09-01T15:02:09.468Z,45.47
2018-09-01T15:04:39.709Z,44.97
2018-09-01T15:07:09.542Z,44.29
2018-09-01T15:09:39.442Z,45.69
2018-09-01T15:12:09.437Z,45.79
2018-09-01T15:14:39.620Z,44.16
2018-09-01T15:17:09.344Z,44.79
2018-09-01T15:19:39.302Z,44.68
2018-09-01T15:22:09.280Z,43.87
2018-09-01T15:24:39.185Z,43.26
2018-09-01T15:27:08.956Z,43.14
2018-09-01T15:29:38.882Z,43.56
2018-09-01T15:32:09.135Z,42.99
2018-09-01T15:34:39.393Z,41.27
2018-09-01T15:37:09.138Z,42.05
2018-09-01T15:39:38.989Z,42.29
2018-09-01T15:42:08.932Z,42.51
2018-09-01T15:44:38.872Z,42.43
2018-09-01T15:47:08.959Z,41.70
2018-09-01T15:49:38.593Z,42.50
2018-09-01T15:52:08.896Z,43.02
2018-09-01T15:54:38.528Z,44.23
2018-09-01T15:57:08.313Z,47.21
2018-09-01T15:59:38.068Z,48.06
2018-09-01T16:02:07.893Z,48.54
2018-09-01T16:04:37.648Z,48.07
2018-09-01T16:07:07.490Z,47.98
2018-09-01T16:09:37.253Z,48.75
2018-09-01T16:12:07.708Z,48.56
2018-09-01T16:14:37.676Z,48.43
2018-09-01T16:17:07.636Z,48.61
2018-09-01T16:19:37.361Z,48.38
2018-09-01T16:22:07.034Z,48.83
2018-09-01T16:24:37.609Z,49.64
2018-09-01T16:27:07.192Z,49.67
2018-09-01T16:29:36.860Z,48.80
2018-09-01T16:32:07.161Z,48.59
2018-09-01T16:34:37.045Z,48.41
2018-09-01T16:37:06.898Z,48.26
2018-09-01T16:39:36.576Z,48.60
2018-09-01T16:42:06.211Z,48.29
2018-09-01T16:44:35.876Z,48.53
2018-09-01T16:47:05.959Z,48.68
2018-09-01T16:49:35.617Z,49.37
2018-09-01T16:52:05.398Z,49.14
2018-09-01T16:54:35.077Z,50.05
2018-09-01T16:57:04.771Z,51.08
2018-09-01T16:59:34.608Z,51.84
2018-09-01T17:02:04.248Z,51.67
2018-09-01T17:04:33.940Z,52.78
2018-09-01T17:07:03.625Z,52.74
2018-09-01T17:09:33.420Z,53.80
2018-09-01T17:12:03.132Z,53.17
2018-09-01T17:14:32.800Z,53.92
2018-09-01T17:17:02.661Z,55.52
2018-09-01T17:19:32.313Z,56.41
2018-09-01T17:22:01.985Z,55.67
2018-09-01T17:24:31.597Z,57.05
2018-09-01T17:27:01.229Z,56.67
2018-09-01T17:29:31.057Z,57.09
2018-09-01T17:32:00.779Z,57.79
2018-09-01T17:34:30.385Z,57.69
2018-09-01T17:37:00.138Z,57.98
2018-09-01T17:39:29.758Z,58.02
2018-09-01T17:41:59.495Z,58.57
2018-09-01T17:44:29.432Z,58.28
2018-09-01T17:46:59.145Z,58.45
2018-09-01T17:49:28.945Z,59.23
2018-09-01T17:51:58.663Z,59.11
2018-09-01T17:54:28.677Z,58.87
2018-09-01T17:56:58.374Z,59.09
2018-09-01T17:59:28.015Z,59.41
2018-09-01T18:01:57.821Z,59.63
2018-09-01T18:04:27.591Z,59.86
2018-09-01T18:06:57.215Z,60.50
2018-09-01T18:09:27.083Z,60.95
2018-09-01T18:11:57.341Z,61.10
2018-09-01T18:14:27.108Z,62.39
2018-09-01T18:16:56.875Z,62.40
2018-09-01T18:19:26.583Z,62.04
2018-09-01T18:21:56.327Z,62.00
2018-09-01T18:24:26.067Z,62.98
2018-09-01T18:26:56.306Z,63.20
2018-09-01T18:29:26.060Z,64.24
2018-09-01T18:31:56.307Z,63.54
2018-09-01T18:34:26.044Z,64.24
2018-09-01T18:36:56.019Z,64.55
2018-09-01T18:39:25.848Z,65.62
2018-09-01T18:41:57.252Z,66.68
2018-09-01T18:44:27.169Z,66.08
2018-09-01T18:46:57.254Z,66.92
2018-09-01T18:49:27.495Z,66.46
2018-09-01T18:51:57.667Z,66.53
2018-09-01T18:54:27.496Z,67.13
2018-09-01T18:56:58.543Z,66.64
2018-09-01T18:59:28.279Z,66.85
2018-09-01T19:01:58.070Z,67.60
2018-09-01T19:04:27.697Z,67.85
2018-09-01T19:06:57.759Z,68.60
2018-09-01T19:09:27.597Z,69.05
2018-09-01T19:11:57.522Z,69.50
2018-09-01T19:14:27.173Z,69.15
2018-09-01T19:16:57.509Z,69.93
2018-09-01T19:19:27.140Z,71.30
2018-09-01T19:21:57.536Z,71.26
2018-09-01T19:24:27.653Z,71.91
2018-09-01T19:26:57.518Z,71.02
2018-09-01T19:29:27.575Z,71.45
2018-09-01T19:31:57.567Z,71.69
2018-09-01T19:34:27.254Z,72.22
2018-09-01T19:36:57.662Z,71.97
2018-09-01T19:39:27.494Z,72.09
2018-09-01T19:42:03.967Z,73.24
2018-09-01T19:44:36.633Z,72.14
2018-09-01T19:47:06.944Z,72.15
2018-09-01T19:49:36.495Z,73.53
2018-09-01T19:52:06.641Z,73.60
2018-09-01T19:54:36.482Z,72.61
2018-09-01T19:57:06.791Z,73.30
2018-09-01T19:59:36.506Z,74.03
2018-09-01T20:02:06.557Z,74.32
2018-09-01T20:04:36.547Z,73.58
2018-09-01T20:07:06.279Z,73.56
2018-09-01T20:09:36.006Z,74.63
2018-09-01T20:12:05.794Z,74.80
2018-09-01T20:14:35.532Z,75.32
2018-09-01T20:17:05.678Z,74.86
2018-09-01T20:19:35.507Z,75.83
2018-09-01T20:22:06.984Z,75.62
2018-09-01T20:24:36.712Z,75.72
2018-09-01T20:27:06.736Z,75.77
2018-09-01T20:29:36.409Z,76.77
2018-09-01T20:32:06.765Z,77.40
2018-09-01T20:34:40.432Z,77.78
2018-09-01T20:37:10.113Z,78.23
2018-09-01T20:39:39.802Z,78.06
2018-09-01T20:42:09.658Z,79.29
2018-09-01T20:44:39.366Z,79.15
2018-09-01T20:47:09.042Z,79.24
2018-09-01T20:49:39.084Z,79.61
2018-09-01T20:52:08.759Z,80.74
2018-09-01T20:54:38.545Z,80.96
2018-09-01T20:57:09.009Z,80.67
2018-09-01T20:59:38.736Z,81.87
2018-09-01T21:02:08.991Z,81.05
2018-09-01T21:04:38.686Z,82.26
2018-09-01T21:07:08.928Z,81.56
2018-09-01T21:09:38.674Z,81.72
2018-09-01T21:12:08.870Z,81.27
2018-09-01T21:14:38.550Z,81.42
2018-09-01T21:17:08.951Z,82.11
2018-09-01T21:19:38.800Z,83.11
2018-09-01T21:22:08.778Z,83.40
2018-09-01T21:24:38.557Z,82.45
2018-09-01T21:27:08.781Z,83.75
2018-09-01T21:29:38.540Z,83.34
2018-09-01T21:32:08.743Z,84.07
2018-09-01T21:34:38.389Z,84.80
2018-09-01T21:37:08.658Z,84.08
2018-09-01T21:39:38.309Z,84.05
2018-09-01T21:42:08.346Z,84.17
2018-09-01T21:44:38.059Z,85.33
2018-09-01T21:47:07.980Z,85.12
2018-09-01T21:49:37.710Z,85.13
2018-09-01T21:52:07.570Z,85.21
2018-09-01T21:54:37.579Z,84.85
2018-09-01T21:57:07.999Z,84.65
2018-09-01T21:59:37.637Z,85.58
2018-09-01T22:02:12.707Z,85.92
2018-09-01T22:04:47.605Z,85.79
2018-09-01T22:07:20.328Z,85.25
2018-09-01T22:09:50.991Z,85.00
2018-09-01T22:12:21.161Z,86.46
2018-09-01T22:14:52.003Z,85.50
2018-09-01T22:17:22.896Z,86.67
2018-09-01T22:19:52.515Z,86.13
2018-09-01T22:22:22.152Z,85.41
2018-09-01T22:24:51.795Z,86.35
2018-09-01T22:27:21.517Z,85.48
2018-09-01T22:29:51.171Z,85.21
2018-09-01T22:32:20.821Z,85.80
2018-09-01T22:34:50.551Z,85.44
2018-09-01T22:37:20.195Z,85.09
2018-09-01T22:39:49.759Z,85.20
2018-09-01T22:42:19.442Z,85.60
2018-09-01T22:44:49.329Z,85.45
2018-09-01T22:47:21.519Z,84.83
2018-09-01T22:49:51.144Z,84.34
2018-09-01T22:52:20.834Z,84.35
2018-09-01T22:54:50.885Z,84.82
2018-09-01T22:57:20.812Z,83.89
2018-09-01T22:59:50.702Z,84.22
2018-09-01T23:02:20.392Z,84.78
2018-09-01T23:04:49.975Z,84.82
2018-09-01T23:07:19.573Z,84.56
2018-09-01T23:09:49.353Z,85.06
2018-09-01T23:12:19.385Z,85.91
2018-09-01T23:14:48.930Z,86.44
2018-09-01T23:17:18.865Z,86.16
2018-09-01T23:19:48.502Z,86.90
2018-09-01T23:22:18.506Z,86.83
2018-09-01T23:24:48.103Z,87.68
2018-09-01T23:27:18.164Z,87.99
2018-09-01T23:29:47.708Z,86.48
2018-09-01T23:32:17.648Z,87.49
2018-09-01T23:34:47.411Z,88.05
2018-09-01T23:37:17.538Z,88.51
2018-09-01T23:39:47.175Z,88.44
2018-09-01T23:42:16.806Z,88.12
2018-09-01T23:44:46.652Z,88.75
2018-09-01T23:47:16.226Z,88.55
2018-09-01T23:49:45.945Z,89.08
2018-09-01T23:52:15.529Z,90.08
2018-09-01T23:54:45.235Z,90.39
2018-09-01T23:57:14.814Z,90.92
2018-09-01T23:59:44.563Z,90.82
